Fairhaven, Washington
Current Conditions -  °F | °C
As of 8:53 PM on Wednesday 22 Oct 2014 (Local Time) from KBLI Reporting Station
Moderate Rain Moderate Rain  
Wind Chill: 57°   Ceiling: 2600
Heat Index: 57°   Visibility: 5mi
Dew Point: 51°   Wind: 20mph
Humidity: 81%   Direction: 160°SSE
Pressure: 29.49"   Gusts: 33mph
Location:  48.7531°N, 122.502°W
Report Text: KBLI 230353Z 16017G29KT 5SM RA BKN026 OVC030 14/11 A2949 RMK AO2 PK WND 16037/0334 RAB0254 SLP993 P0008 T01390106
Loading
Personal Weather Stations






























Interactive Weather Map New forecast layout! Learn more

10-Day Weather Forecast

Advertisements
Track Severe Weather on mobile